createdAt,value
2023-08-16T00:02:14.311Z,5.53
2023-08-16T00:04:38.040Z,6.63
2023-08-16T00:07:01.695Z,8.32
2023-08-16T00:09:26.871Z,7.10
2023-08-16T00:11:50.904Z,6.00
2023-08-16T00:14:14.829Z,6.55
2023-08-16T00:16:38.464Z,7.70
2023-08-16T00:19:02.152Z,7.25
2023-08-16T00:21:26.072Z,6.43
2023-08-16T00:23:49.756Z,5.45
2023-08-16T00:26:14.826Z,6.95
2023-08-16T00:28:38.642Z,5.03
2023-08-16T00:31:02.304Z,7.57
2023-08-16T00:33:26.143Z,5.43
2023-08-16T00:35:49.768Z,4.80
2023-08-16T00:38:14.096Z,4.68
2023-08-16T00:40:37.751Z,4.85
2023-08-16T00:43:02.938Z,6.90
2023-08-16T00:45:27.544Z,5.30
2023-08-16T00:47:50.323Z,7.85
2023-08-16T00:50:14.269Z,6.30
2023-08-16T00:52:39.143Z,6.05
2023-08-16T00:55:05.691Z,4.85
2023-08-16T00:57:29.363Z,7.68
2023-08-16T00:59:54.411Z,4.50
2023-08-16T01:02:21.371Z,4.30
2023-08-16T01:04:45.206Z,4.25
2023-08-16T01:07:09.177Z,6.20
2023-08-16T01:09:33.495Z,3.88
2023-08-16T01:12:07.971Z,4.35
2023-08-16T01:14:41.762Z,4.90
2023-08-16T01:17:07.761Z,6.13
2023-08-16T01:19:34.666Z,5.03
2023-08-16T01:22:10.512Z,4.72
2023-08-16T01:24:40.887Z,4.53
2023-08-16T01:27:07.410Z,5.05
2023-08-16T01:29:32.593Z,4.28
2023-08-16T01:31:56.626Z,5.82
2023-08-16T01:34:20.330Z,5.60
2023-08-16T01:36:44.093Z,5.80
2023-08-16T01:39:07.985Z,5.93
2023-08-16T01:41:38.660Z,7.57
2023-08-16T01:44:05.956Z,6.28
2023-08-16T01:46:31.110Z,8.32
2023-08-16T01:48:57.564Z,7.15
2023-08-16T01:51:21.916Z,5.00
2023-08-16T01:53:45.567Z,5.25
2023-08-16T01:56:09.198Z,7.63
2023-08-16T01:58:32.977Z,5.90
2023-08-16T02:00:58.079Z,9.65
2023-08-16T02:03:21.919Z,6.75
2023-08-16T02:05:45.622Z,6.95
2023-08-16T02:08:11.425Z,6.75
2023-08-16T02:10:35.065Z,5.82
2023-08-16T02:12:58.790Z,4.57
2023-08-16T02:15:22.797Z,6.50
2023-08-16T02:17:47.886Z,8.07
2023-08-16T02:20:13.933Z,5.88
2023-08-16T02:22:43.237Z,5.88
2023-08-16T02:25:09.065Z,8.00
2023-08-16T02:27:35.045Z,7.32
2023-08-16T02:29:59.108Z,7.53
2023-08-16T02:32:22.735Z,6.88
2023-08-16T02:34:47.853Z,6.78
2023-08-16T02:37:11.455Z,7.30
2023-08-16T02:39:35.099Z,5.95
2023-08-16T02:42:00.110Z,6.97
2023-08-16T02:44:23.809Z,8.73
2023-08-16T02:46:49.428Z,6.65
2023-08-16T02:49:13.377Z,7.38
2023-08-16T02:51:38.372Z,7.07
2023-08-16T02:54:02.072Z,7.65
2023-08-16T02:56:25.720Z,6.65
2023-08-16T02:58:49.584Z,9.20
2023-08-16T03:01:13.210Z,6.72
2023-08-16T03:03:37.033Z,7.10
2023-08-16T03:06:00.751Z,7.10
2023-08-16T03:08:25.791Z,8.68
2023-08-16T03:10:49.475Z,8.90
2023-08-16T03:13:13.135Z,9.32
2023-08-16T03:15:37.013Z,8.25
2023-08-16T03:18:00.827Z,7.55
2023-08-16T03:20:26.037Z,9.15
2023-08-16T03:22:50.890Z,9.18
2023-08-16T03:25:18.915Z,8.80
2023-08-16T03:27:42.657Z,8.38
2023-08-16T03:30:07.765Z,7.68
2023-08-16T03:32:31.745Z,7.57
2023-08-16T03:34:55.441Z,9.13
2023-08-16T03:37:19.141Z,8.02
2023-08-16T03:39:42.815Z,7.65
2023-08-16T03:42:08.364Z,8.40
2023-08-16T03:44:31.950Z,7.93
2023-08-16T03:46:56.506Z,8.55
2023-08-16T03:49:20.104Z,8.20
2023-08-16T03:51:44.094Z,9.07
2023-08-16T03:54:07.738Z,9.00
2023-08-16T03:56:31.531Z,9.48
2023-08-16T03:58:56.686Z,9.02
2023-08-16T04:01:21.031Z,12.82
2023-08-16T04:03:45.790Z,9.93
2023-08-16T04:06:12.775Z,10.77
2023-08-16T04:08:36.450Z,10.68
2023-08-16T04:11:00.333Z,12.70
2023-08-16T04:13:24.024Z,9.65
2023-08-16T04:15:50.261Z,14.32
2023-08-16T04:18:14.073Z,10.77
2023-08-16T04:20:37.905Z,11.20
2023-08-16T04:23:02.073Z,11.60
2023-08-16T04:25:25.792Z,11.75
2023-08-16T04:27:49.496Z,12.10
2023-08-16T04:30:13.896Z,13.20
2023-08-16T04:32:39.265Z,13.10
2023-08-16T04:35:05.558Z,13.95
2023-08-16T04:37:30.377Z,12.15
2023-08-16T04:39:54.229Z,11.50
2023-08-16T04:42:18.361Z,12.68
2023-08-16T04:44:42.147Z,13.80
2023-08-16T04:47:06.606Z,12.30
2023-08-16T04:49:33.487Z,12.32
2023-08-16T04:51:57.296Z,13.27
2023-08-16T04:54:22.773Z,11.70
2023-08-16T04:56:46.851Z,19.35
2023-08-16T04:59:10.935Z,16.50
2023-08-16T05:01:34.627Z,13.35
2023-08-16T05:03:58.397Z,11.90
2023-08-16T05:06:24.090Z,15.20
2023-08-16T05:08:47.996Z,14.15
2023-08-16T05:11:12.611Z,14.00
2023-08-16T05:13:36.381Z,12.85
2023-08-16T05:16:00.061Z,12.88
2023-08-16T05:18:24.046Z,15.55
2023-08-16T05:20:47.753Z,16.92
2023-08-16T05:23:12.884Z,17.40
2023-08-16T05:25:39.068Z,19.30
2023-08-16T05:28:02.886Z,16.50
2023-08-16T05:30:26.574Z,17.70
2023-08-16T05:32:50.447Z,17.40
2023-08-16T05:35:14.265Z,19.10
2023-08-16T05:37:38.015Z,20.52
2023-08-16T05:40:07.017Z,19.40
2023-08-16T05:42:31.745Z,20.13
2023-08-16T05:44:55.463Z,22.05
2023-08-16T05:47:19.320Z,20.63
2023-08-16T05:49:43.006Z,19.38
2023-08-16T05:52:07.090Z,20.02
2023-08-16T05:54:30.749Z,19.05
2023-08-16T05:56:55.968Z,16.30
2023-08-16T05:59:19.667Z,17.65
2023-08-16T06:01:43.320Z,18.88
2023-08-16T06:04:07.774Z,15.60
2023-08-16T06:06:31.578Z,13.65
2023-08-16T06:08:55.553Z,13.23
2023-08-16T06:11:19.201Z,16.63
2023-08-16T06:13:44.239Z,12.10
2023-08-16T06:16:08.058Z,13.88
2023-08-16T06:18:31.802Z,11.55
2023-08-16T06:20:55.474Z,14.18
2023-08-16T06:23:19.107Z,13.57
2023-08-16T06:25:42.865Z,11.90
2023-08-16T06:28:07.016Z,13.48
2023-08-16T06:30:32.203Z,12.20
2023-08-16T06:32:55.911Z,13.38
2023-08-16T06:35:19.630Z,11.23
2023-08-16T06:37:43.325Z,11.35
2023-08-16T06:40:10.488Z,9.32
2023-08-16T06:42:35.880Z,10.82
2023-08-16T06:44:59.582Z,9.30
2023-08-16T06:47:24.938Z,10.05
2023-08-16T06:49:48.994Z,10.45
2023-08-16T06:52:12.605Z,13.55
2023-08-16T06:54:36.442Z,10.48
2023-08-16T06:57:00.363Z,6.57
2023-08-16T06:59:24.158Z,8.50
2023-08-16T07:01:48.117Z,9.02
2023-08-16T07:04:13.299Z,6.72
2023-08-16T07:06:36.993Z,8.10
2023-08-16T07:09:00.732Z,9.30
2023-08-16T07:11:26.030Z,9.48
2023-08-16T07:13:49.823Z,6.47
2023-08-16T07:16:13.683Z,6.82
2023-08-16T07:18:37.621Z,12.18
2023-08-16T07:21:02.705Z,7.18
2023-08-16T07:23:26.341Z,6.18
2023-08-16T07:25:49.978Z,7.10
2023-08-16T07:28:13.682Z,7.53
2023-08-16T07:30:38.854Z,7.53
2023-08-16T07:33:02.605Z,7.75
2023-08-16T07:35:26.213Z,8.13
2023-08-16T07:37:51.357Z,9.13
2023-08-16T07:40:14.999Z,8.20
2023-08-16T07:42:38.771Z,5.90
2023-08-16T07:45:03.736Z,9.13
2023-08-16T07:47:29.336Z,6.78
2023-08-16T07:49:53.133Z,7.57
2023-08-16T07:52:16.982Z,5.68
2023-08-16T07:54:42.340Z,6.80
2023-08-16T07:57:06.587Z,9.38
2023-08-16T07:59:30.263Z,4.45
2023-08-16T08:01:57.641Z,3.85
2023-08-16T08:04:21.345Z,6.25
2023-08-16T08:06:45.053Z,8.80
2023-08-16T08:09:08.841Z,5.28
2023-08-16T08:11:34.018Z,6.55
2023-08-16T08:13:58.241Z,5.22
2023-08-16T08:16:22.097Z,5.75
2023-08-16T08:18:46.615Z,5.97
2023-08-16T08:21:10.340Z,5.70
2023-08-16T08:23:33.972Z,7.03
2023-08-16T08:25:57.719Z,6.57
2023-08-16T08:28:23.692Z,4.70
2023-08-16T08:30:47.489Z,5.15
2023-08-16T08:33:11.664Z,7.35
2023-08-16T08:35:35.894Z,4.53
2023-08-16T08:37:59.545Z,5.47
2023-08-16T08:40:23.345Z,6.38
2023-08-16T08:42:49.156Z,6.10
2023-08-16T08:45:17.411Z,5.95
2023-08-16T08:47:41.242Z,6.15
2023-08-16T08:50:05.426Z,7.10
2023-08-16T08:52:29.945Z,4.30
2023-08-16T08:54:53.744Z,4.20
2023-08-16T08:57:17.965Z,7.25
2023-08-16T08:59:47.101Z,5.65
2023-08-16T09:02:14.050Z,4.82
2023-08-16T09:04:38.511Z,5.95
2023-08-16T09:07:06.102Z,4.50
2023-08-16T09:09:30.306Z,4.32
2023-08-16T09:11:53.933Z,5.97
2023-08-16T09:14:17.635Z,4.22
2023-08-16T09:16:41.297Z,4.47
2023-08-16T09:19:15.618Z,5.22
2023-08-16T09:21:39.340Z,4.07
2023-08-16T09:24:04.351Z,5.32
2023-08-16T09:26:29.845Z,4.82
2023-08-16T09:28:59.322Z,5.90
2023-08-16T09:31:23.135Z,3.55
2023-08-16T09:33:46.867Z,5.47
2023-08-16T09:36:12.086Z,3.83
2023-08-16T09:38:43.239Z,4.15
2023-08-16T09:41:17.762Z,4.93
2023-08-16T09:43:41.528Z,5.53
2023-08-16T09:46:05.644Z,5.13
2023-08-16T09:48:29.507Z,3.70
2023-08-16T09:53:37.577Z,3.85
2023-08-16T09:56:04.023Z,4.13
2023-08-16T09:58:29.492Z,4.70
2023-08-16T10:00:53.258Z,6.60
2023-08-16T10:03:17.063Z,4.72
2023-08-16T10:08:10.586Z,5.57
2023-08-16T10:10:35.852Z,3.38
2023-08-16T10:13:02.009Z,3.55
2023-08-16T10:15:26.614Z,4.95
2023-08-16T10:17:53.465Z,4.90
2023-08-16T10:20:24.654Z,3.45
2023-08-16T10:22:51.899Z,4.03
2023-08-16T10:25:18.670Z,3.15
2023-08-16T10:27:47.337Z,3.75
2023-08-16T10:30:15.933Z,3.25
2023-08-16T10:32:44.563Z,3.90
2023-08-16T10:35:11.942Z,3.70
2023-08-16T10:37:39.804Z,4.20
2023-08-16T10:42:31.367Z,3.03
2023-08-16T10:44:56.400Z,3.75
2023-08-16T10:47:30.278Z,4.38
2023-08-16T10:49:54.131Z,3.85
2023-08-16T10:52:17.841Z,3.78
2023-08-16T10:54:41.670Z,3.40
2023-08-16T10:57:08.184Z,3.88
2023-08-16T10:59:40.230Z,3.15
2023-08-16T11:02:15.877Z,3.72
2023-08-16T11:04:41.270Z,3.95
2023-08-16T11:07:11.482Z,4.40
2023-08-16T11:09:37.453Z,3.47
2023-08-16T11:12:04.683Z,3.67
2023-08-16T11:14:28.394Z,4.05
2023-08-16T11:16:56.858Z,3.38
2023-08-16T11:19:25.219Z,2.95
2023-08-16T11:21:49.090Z,3.35
2023-08-16T11:24:12.795Z,3.55
2023-08-16T11:26:40.423Z,3.67
2023-08-16T11:29:05.090Z,2.85
2023-08-16T11:31:28.812Z,4.85
2023-08-16T11:33:52.561Z,3.97
2023-08-16T11:36:17.768Z,4.88
2023-08-16T11:38:41.898Z,3.35
2023-08-16T11:41:06.314Z,2.75
2023-08-16T11:43:31.011Z,3.47
2023-08-16T11:45:55.041Z,3.58
2023-08-16T11:48:18.874Z,4.70
2023-08-16T11:50:43.446Z,3.30
2023-08-16T11:53:08.512Z,4.03
2023-08-16T11:55:34.363Z,4.57
2023-08-16T11:58:05.175Z,4.68
2023-08-16T12:00:30.760Z,2.83
2023-08-16T12:02:54.673Z,2.55
2023-08-16T12:05:18.629Z,2.65
2023-08-16T12:07:46.624Z,2.88
2023-08-16T12:10:12.027Z,3.35
2023-08-16T12:12:35.736Z,3.85
2023-08-16T12:14:59.465Z,5.15
2023-08-16T12:17:23.640Z,3.97
2023-08-16T12:19:47.507Z,3.08
2023-08-16T12:22:11.072Z,3.50
2023-08-16T12:24:35.201Z,3.17
2023-08-16T12:27:00.266Z,3.85
2023-08-16T12:29:24.329Z,4.53
2023-08-16T12:31:47.988Z,2.88
2023-08-16T12:34:11.694Z,3.35
2023-08-16T12:36:35.465Z,3.35
2023-08-16T12:38:59.142Z,2.97
2023-08-16T12:41:22.771Z,3.03
2023-08-16T12:43:47.871Z,2.72
2023-08-16T12:46:11.926Z,3.17
2023-08-16T12:48:35.845Z,2.53
2023-08-16T12:53:29.104Z,2.80
2023-08-16T12:55:53.256Z,3.20
2023-08-16T13:00:46.747Z,3.17
2023-08-16T13:03:10.878Z,4.28
2023-08-16T13:05:34.981Z,3.45
2023-08-16T13:08:04.160Z,3.53
2023-08-16T13:10:37.692Z,2.75
2023-08-16T13:13:07.875Z,2.70
2023-08-16T13:20:45.079Z,3.42
2023-08-16T13:23:11.540Z,4.78
2023-08-16T13:25:37.546Z,3.17
2023-08-16T13:28:07.660Z,2.45
2023-08-16T13:35:51.043Z,3.50
2023-08-16T13:38:17.692Z,4.68
2023-08-16T13:40:52.300Z,2.40
2023-08-16T13:43:23.211Z,2.75
2023-08-16T13:45:49.268Z,3.13
2023-08-16T13:48:14.451Z,2.85
2023-08-16T13:50:38.148Z,3.80
2023-08-16T13:53:01.785Z,4.68
2023-08-16T13:55:25.464Z,3.67
2023-08-16T13:57:49.051Z,3.03
2023-08-16T14:00:13.850Z,3.30
2023-08-16T14:02:38.246Z,3.42
2023-08-16T14:05:03.475Z,2.50
2023-08-16T14:07:27.216Z,4.72
2023-08-16T14:09:50.886Z,3.03
2023-08-16T14:12:14.503Z,2.88
2023-08-16T14:14:38.307Z,2.95
2023-08-16T14:17:02.107Z,4.68
2023-08-16T14:19:26.761Z,2.90
2023-08-16T14:21:57.215Z,3.22
2023-08-16T14:24:21.495Z,2.85
2023-08-16T14:26:45.105Z,3.25
2023-08-16T14:29:11.543Z,2.63
2023-08-16T14:31:35.334Z,3.85
2023-08-16T14:33:59.039Z,3.13
2023-08-16T14:36:22.670Z,2.78
2023-08-16T14:38:59.331Z,3.03
2023-08-16T14:41:24.506Z,4.60
2023-08-16T14:43:48.106Z,3.53
2023-08-16T14:46:11.803Z,2.85
2023-08-16T14:48:35.442Z,5.35
2023-08-16T14:50:59.101Z,5.10
2023-08-16T14:53:22.708Z,3.53
2023-08-16T14:55:47.786Z,4.97
2023-08-16T14:58:11.364Z,4.90
2023-08-16T15:00:35.322Z,3.88
2023-08-16T15:02:59.083Z,3.53
2023-08-16T15:05:22.834Z,4.00
2023-08-16T15:07:46.621Z,6.53
2023-08-16T15:10:11.904Z,3.88
2023-08-16T15:12:37.138Z,6.75
2023-08-16T15:15:00.876Z,3.50
2023-08-16T15:17:24.491Z,3.35
2023-08-16T15:19:48.143Z,3.72
2023-08-16T15:22:11.788Z,4.85
2023-08-16T15:24:35.448Z,8.38
2023-08-16T15:26:59.040Z,4.78
2023-08-16T15:29:24.123Z,4.15
2023-08-16T15:31:47.793Z,4.80
2023-08-16T15:34:11.752Z,4.10
2023-08-16T15:36:35.756Z,3.35
2023-08-16T15:39:00.050Z,4.63
2023-08-16T15:41:23.869Z,3.58
2023-08-16T15:43:47.686Z,3.70
2023-08-16T15:46:15.013Z,3.70
2023-08-16T15:48:39.113Z,3.67
2023-08-16T15:51:02.975Z,5.18
2023-08-16T15:53:26.933Z,2.55
2023-08-16T15:55:51.370Z,3.22
2023-08-16T15:58:15.022Z,3.80
2023-08-16T16:00:38.713Z,4.82
2023-08-16T16:03:05.347Z,6.05
2023-08-16T16:05:28.966Z,5.20
2023-08-16T16:07:52.926Z,3.38
2023-08-16T16:10:16.586Z,3.60
2023-08-16T16:12:40.258Z,4.00
2023-08-16T16:15:04.155Z,3.13
2023-08-16T16:17:29.223Z,4.22
2023-08-16T16:19:54.624Z,5.53
2023-08-16T16:22:18.956Z,5.07
2023-08-16T16:24:42.605Z,2.97
2023-08-16T16:27:06.543Z,3.10
2023-08-16T16:29:30.157Z,4.35
2023-08-16T16:31:53.952Z,4.80
2023-08-16T16:34:17.568Z,4.30
2023-08-16T16:36:42.650Z,5.45
2023-08-16T16:39:06.571Z,7.82
2023-08-16T16:41:30.628Z,3.13
2023-08-16T16:43:54.234Z,3.95
2023-08-16T16:46:18.033Z,3.70
2023-08-16T16:48:41.692Z,4.85
2023-08-16T16:51:05.469Z,3.85
2023-08-16T16:53:30.543Z,3.72
2023-08-16T16:55:54.286Z,3.55
2023-08-16T16:58:18.059Z,2.78
2023-08-16T17:00:41.717Z,3.25
2023-08-16T17:03:05.984Z,4.43
2023-08-16T17:05:29.969Z,3.78
2023-08-16T17:07:53.615Z,4.32
2023-08-16T17:10:19.029Z,4.10
2023-08-16T17:12:42.633Z,5.75
2023-08-16T17:15:07.888Z,5.45
2023-08-16T17:17:31.506Z,3.78
2023-08-16T17:19:55.197Z,4.70
2023-08-16T17:22:18.837Z,3.20
2023-08-16T17:24:42.469Z,5.80
2023-08-16T17:27:07.712Z,3.85
2023-08-16T17:29:31.481Z,3.22
2023-08-16T17:31:55.221Z,3.50
2023-08-16T17:34:19.276Z,3.83
2023-08-16T17:36:42.896Z,4.03
2023-08-16T17:39:10.144Z,4.43
2023-08-16T17:41:33.852Z,4.22
2023-08-16T17:43:59.026Z,4.03
2023-08-16T17:46:23.167Z,5.00
2023-08-16T17:48:48.136Z,4.78
2023-08-16T17:51:12.489Z,5.53
2023-08-16T17:53:36.572Z,4.35
2023-08-16T17:56:00.313Z,4.45
2023-08-16T17:58:24.954Z,4.22
2023-08-16T18:00:50.405Z,4.72
2023-08-16T18:03:14.098Z,3.90
2023-08-16T18:05:38.143Z,4.35
2023-08-16T18:08:01.911Z,4.38
2023-08-16T18:10:25.995Z,3.35
2023-08-16T18:12:49.719Z,3.40
2023-08-16T18:15:13.312Z,3.35
2023-08-16T18:17:38.481Z,2.53
2023-08-16T18:20:04.679Z,3.17
2023-08-16T18:22:28.650Z,4.15
2023-08-16T18:24:52.255Z,3.58
2023-08-16T18:27:16.055Z,2.90
2023-08-16T18:29:40.245Z,3.20
2023-08-16T18:32:04.173Z,3.30
2023-08-16T18:34:29.354Z,3.55
2023-08-16T18:36:53.024Z,3.60
2023-08-16T18:39:16.700Z,4.07
2023-08-16T18:41:40.696Z,3.55
2023-08-16T18:44:06.179Z,3.08
2023-08-16T18:46:29.960Z,3.35
2023-08-16T18:48:53.628Z,12.70
2023-08-16T18:51:19.497Z,2.95
2023-08-16T18:53:43.121Z,2.45
2023-08-16T18:56:07.075Z,3.63
2023-08-16T18:58:30.979Z,3.88
2023-08-16T19:00:56.890Z,6.13
2023-08-16T19:03:20.504Z,4.95
2023-08-16T19:05:45.395Z,4.35
2023-08-16T19:08:10.381Z,3.20
2023-08-16T19:10:34.075Z,4.65
2023-08-16T19:12:57.661Z,4.05
2023-08-16T19:15:22.255Z,4.18
2023-08-16T19:17:45.919Z,2.92
2023-08-16T19:20:10.707Z,4.05
2023-08-16T19:22:34.574Z,7.25
2023-08-16T19:24:59.813Z,5.95
2023-08-16T19:29:47.723Z,4.03
2023-08-16T19:32:15.324Z,3.47
2023-08-16T19:34:39.058Z,5.00
2023-08-16T19:37:02.807Z,2.58
2023-08-16T19:39:26.624Z,4.28
2023-08-16T19:41:51.611Z,3.33
2023-08-16T19:44:18.728Z,3.53
2023-08-16T19:46:42.479Z,3.38
2023-08-16T19:49:06.843Z,3.55
2023-08-16T19:51:30.930Z,4.07
2023-08-16T19:53:54.741Z,6.57
2023-08-16T19:56:18.335Z,7.03
2023-08-16T19:58:43.437Z,6.60
2023-08-16T20:01:07.174Z,4.70
2023-08-16T20:03:30.985Z,5.47
2023-08-16T20:05:55.823Z,5.55
2023-08-16T20:08:19.831Z,5.93
2023-08-16T20:10:43.688Z,5.35
2023-08-16T20:13:07.433Z,4.18
2023-08-16T20:15:32.744Z,7.65
2023-08-16T20:17:56.666Z,4.50
2023-08-16T20:20:20.468Z,6.15
2023-08-16T20:22:46.613Z,7.03
2023-08-16T20:25:11.197Z,5.50
2023-08-16T20:27:34.857Z,5.47
2023-08-16T20:29:58.471Z,4.63
2023-08-16T20:32:23.571Z,4.60
2023-08-16T20:34:54.675Z,4.43
2023-08-16T20:37:18.303Z,5.18
2023-08-16T20:39:41.944Z,4.65
2023-08-16T20:42:06.211Z,5.20
2023-08-16T20:44:29.852Z,5.07
2023-08-16T20:46:55.272Z,4.70
2023-08-16T20:49:20.477Z,3.63
2023-08-16T20:51:44.300Z,3.33
2023-08-16T20:54:14.269Z,4.97
2023-08-16T20:56:38.623Z,6.35
2023-08-16T20:59:03.213Z,4.88
2023-08-16T21:01:27.089Z,7.88
2023-08-16T21:03:50.810Z,7.88
2023-08-16T21:06:15.848Z,11.57
2023-08-16T21:08:40.116Z,7.60
2023-08-16T21:11:03.829Z,4.18
2023-08-16T21:13:27.464Z,9.95
2023-08-16T21:15:51.195Z,7.95
2023-08-16T21:18:14.875Z,4.32
2023-08-16T21:20:38.663Z,5.68
2023-08-16T21:23:03.773Z,10.35
2023-08-16T21:25:27.524Z,6.50
2023-08-16T21:27:52.458Z,4.90
2023-08-16T21:30:16.524Z,12.35
2023-08-16T21:32:40.337Z,6.13
2023-08-16T21:35:03.991Z,4.88
2023-08-16T21:37:27.889Z,4.60
2023-08-16T21:39:53.161Z,11.48
2023-08-16T21:42:16.772Z,4.50
2023-08-16T21:44:40.466Z,5.10
2023-08-16T21:47:04.999Z,4.78
2023-08-16T21:49:28.644Z,3.05
2023-08-16T21:51:52.290Z,3.45
2023-08-16T21:54:16.034Z,3.30
2023-08-16T21:56:41.493Z,5.45
2023-08-16T21:59:05.629Z,5.45
2023-08-16T22:01:29.301Z,7.38
2023-08-16T22:03:53.053Z,3.47
2023-08-16T22:06:16.688Z,5.85
2023-08-16T22:08:40.317Z,3.65
2023-08-16T22:11:06.443Z,8.43
2023-08-16T22:13:31.858Z,5.35
2023-08-16T22:15:55.478Z,3.85
2023-08-16T22:18:20.122Z,6.63
2023-08-16T22:20:56.485Z,4.93
2023-08-16T22:23:25.640Z,8.15
2023-08-16T22:25:49.228Z,4.65
2023-08-16T22:28:12.981Z,5.45
2023-08-16T22:30:38.044Z,2.90
2023-08-16T22:33:02.221Z,3.88
2023-08-16T22:35:26.082Z,3.58
2023-08-16T22:37:49.841Z,4.28
2023-08-16T22:40:14.259Z,3.38
2023-08-16T22:42:37.943Z,4.97
2023-08-16T22:45:01.765Z,3.65
2023-08-16T22:47:27.114Z,6.70
2023-08-16T22:49:50.923Z,3.67
2023-08-16T22:52:14.592Z,3.13
2023-08-16T22:54:38.310Z,3.85
2023-08-16T22:57:01.974Z,5.00
2023-08-16T22:59:25.823Z,7.70
2023-08-16T23:01:49.559Z,2.88
2023-08-16T23:04:14.639Z,3.30
2023-08-16T23:06:38.455Z,4.07
2023-08-16T23:09:02.036Z,3.15
2023-08-16T23:11:25.732Z,4.05
2023-08-16T23:13:49.362Z,5.00
2023-08-16T23:16:13.047Z,5.55
2023-08-16T23:18:36.761Z,3.95
2023-08-16T23:21:01.811Z,3.88
2023-08-16T23:23:25.584Z,5.38
2023-08-16T23:25:49.325Z,3.60
2023-08-16T23:28:13.018Z,3.33
2023-08-16T23:30:36.884Z,10.90
2023-08-16T23:33:00.613Z,5.82
2023-08-16T23:35:24.559Z,3.50
2023-08-16T23:37:49.586Z,4.70
2023-08-16T23:40:14.624Z,2.42
2023-08-16T23:42:38.544Z,4.00
2023-08-16T23:45:02.228Z,4.47
2023-08-16T23:47:26.199Z,4.13
2023-08-16T23:49:50.418Z,3.25
2023-08-16T23:52:14.012Z,3.45
2023-08-16T23:54:39.102Z,5.82
2023-08-16T23:57:03.049Z,4.85
2023-08-16T23:59:26.923Z,8.10
